Time;durP1;ratioP1;P1;durP2;ratioP2;P2;SDS_P1;SDS_P2;PMS_P1;PMS_P2;Temp;Humidity;BMP_temperature;BMP_pressure;BME280_temperature;BME280_humidity;BME280_pressure;Samples;Min_cycle;Max_cycle;Signal;HPM_P1;HPM_P2
2022/08/19 00:01:12;;;;;;;;;;;;;;;19.48;63.92;100840.00;5037308;28;20378;-79
2022/08/19 00:03:37;;;;;;;;;;;;;;;19.52;63.43;100842.38;5038052;28;19931;-79
2022/08/19 00:06:03;;;;;;;;;;;;;;;19.51;63.72;100835.41;5040729;28;19925;-79
2022/08/19 00:08:28;;;;;;;;;;;;;;;19.54;63.66;100829.97;5016086;28;19929;-79
2022/08/19 00:10:53;;;;;;;;;;;;;;;19.56;62.97;100836.00;5024726;28;19924;-79
2022/08/19 00:13:19;;;;;;;;;;;;;;;19.56;63.05;100835.16;5009178;28;20011;-79
2022/08/19 00:15:44;;;;;;;;;;;;;;;19.53;63.26;100832.69;5035138;28;19932;-79
2022/08/19 00:18:09;;;;;;;;;;;;;;;19.51;63.64;100840.69;5035573;28;20561;-79
2022/08/19 00:20:35;;;;;;;;;;;;;;;19.49;63.67;100839.09;5024567;28;20960;-79
2022/08/19 00:23:00;;;;;;;;;;;;;;;19.50;63.25;100846.03;5041486;28;19927;-79
2022/08/19 00:25:25;;;;;;;;;;;;;;;19.47;63.53;100847.06;5037991;28;20301;-79
2022/08/19 00:27:51;;;;;;;;;;;;;;;19.45;63.48;100843.66;5040396;28;19916;-79
2022/08/19 00:30:16;;;;;;;;;;;;;;;19.44;63.81;100839.31;5043048;28;20567;-79
2022/08/19 00:32:41;;;;;;;;;;;;;;;19.43;63.76;100834.16;5042308;28;19964;-79
2022/08/19 00:35:07;;;;;;;;;;;;;;;19.41;63.58;100838.66;5044630;28;20350;-79
2022/08/19 00:37:34;;;;;;;;;;;;;;;19.39;63.95;100838.75;5044027;28;19929;-79
2022/08/19 00:39:59;;;;;;;;;;;;;;;19.39;63.88;100835.25;5045971;28;19973;-79
2022/08/19 00:42:28;;;;;;;;;;;;;;;19.33;63.61;100844.34;5016644;28;20020;-79
2022/08/19 00:44:53;;;;;;;;;;;;;;;19.32;63.96;100847.91;5039940;28;19940;-79
2022/08/19 00:47:19;;;;;;;;;;;;;;;19.31;64.01;100845.38;5042040;28;20381;-79
2022/08/19 00:49:50;;;;;;;;;;;;;;;19.26;64.38;100849.06;5037248;28;19970;-79
2022/08/19 00:52:19;;;;;;;;;;;;;;;19.26;64.13;100848.22;5041142;28;19933;-79
2022/08/19 00:54:47;;;;;;;;;;;;;;;19.24;64.24;100843.06;5040913;28;19924;-79
2022/08/19 00:57:15;;;;;;;;;;;;;;;19.23;64.34;100851.88;5033543;28;19921;-79
2022/08/19 00:59:41;;;;;;;;;;;;;;;19.22;64.32;100855.44;5040216;28;20408;-79
2022/08/19 01:02:07;;;;;;;;;;;;;;;19.21;64.33;100853.75;5034182;28;20297;-79
2022/08/19 01:04:33;;;;;;;;;;;;;;;19.22;64.38;100849.34;5039011;28;19924;-79
2022/08/19 01:06:58;;;;;;;;;;;;;;;19.17;64.50;100854.00;5038413;28;19921;-79
2022/08/19 01:09:24;;;;;;;;;;;;;;;19.17;64.48;100846.94;5039737;28;20759;-79
2022/08/19 01:11:49;;;;;;;;;;;;;;;19.15;64.73;100845.34;5036274;28;19948;-79
2022/08/19 01:14:16;;;;;;;;;;;;;;;19.14;64.64;100843.63;5037400;28;20014;-79
2022/08/19 01:16:42;;;;;;;;;;;;;;;19.14;64.33;100841.84;5036163;28;20393;-79
2022/08/19 01:19:16;;;;;;;;;;;;;;;19.12;64.72;100846.38;5037379;28;19913;-79
2022/08/19 01:21:46;;;;;;;;;;;;;;;19.12;64.56;100838.47;5037083;28;19925;-79
2022/08/19 01:24:11;;;;;;;;;;;;;;;19.10;64.59;100831.59;5035242;28;20361;-79
2022/08/19 01:26:41;;;;;;;;;;;;;;;19.11;64.63;100834.13;5032620;28;19948;-79
2022/08/19 01:29:07;;;;;;;;;;;;;;;19.10;64.56;100832.44;5034225;28;19925;-79
2022/08/19 01:31:33;;;;;;;;;;;;;;;19.08;64.58;100834.28;5041409;28;19929;-79
2022/08/19 01:33:58;;;;;;;;;;;;;;;19.07;64.81;100837.88;5039431;28;19921;-79
2022/08/19 01:36:31;;;;;;;;;;;;;;;19.06;64.57;100830.91;5024122;28;19925;-79
2022/08/19 01:38:57;;;;;;;;;;;;;;;19.06;65.11;100824.78;5017229;28;19925;-79
2022/08/19 01:41:23;;;;;;;;;;;;;;;19.07;64.59;100818.59;5015293;28;19931;-79
2022/08/19 01:43:50;;;;;;;;;;;;;;;19.06;64.92;100824.78;5027715;28;20300;-79
2022/08/19 01:46:15;;;;;;;;;;;;;;;19.04;64.66;100822.25;5038644;28;20112;-79
2022/08/19 01:48:41;;;;;;;;;;;;;;;19.02;64.79;100824.09;5047231;28;20444;-79
2022/08/19 01:51:08;;;;;;;;;;;;;;;19.01;64.94;100819.78;5047721;28;19979;-79
2022/08/19 01:53:34;;;;;;;;;;;;;;;19.01;64.90;100817.16;5053939;28;19996;-79
2022/08/19 01:56:00;;;;;;;;;;;;;;;19.01;64.87;100827.69;5048697;28;20352;-79
2022/08/19 01:58:39;;;;;;;;;;;;;;;18.96;65.17;100836.75;5046981;28;19921;-79
2022/08/19 02:01:05;;;;;;;;;;;;;;;18.97;64.79;100841.94;5052370;28;19948;-79
2022/08/19 02:03:30;;;;;;;;;;;;;;;18.95;64.68;100846.44;5019148;28;20019;-79
2022/08/19 02:05:58;;;;;;;;;;;;;;;19.00;64.37;100847.03;5036171;28;19928;-79
2022/08/19 02:08:23;;;;;;;;;;;;;;;19.02;64.50;100839.03;5040700;28;19957;-79
2022/08/19 02:10:49;;;;;;;;;;;;;;;18.98;64.33;100842.78;5043291;28;20013;-79
2022/08/19 02:13:15;;;;;;;;;;;;;;;18.95;64.55;100842.97;5046990;28;20573;-79
2022/08/19 02:15:40;;;;;;;;;;;;;;;18.92;64.70;100830.81;5038948;28;19932;-79
2022/08/19 02:18:07;;;;;;;;;;;;;;;18.93;64.76;100836.91;5033937;28;19932;-79
2022/08/19 02:20:33;;;;;;;;;;;;;;;18.90;64.86;100832.66;5037933;28;20302;-79
2022/08/19 02:23:01;;;;;;;;;;;;;;;18.88;65.26;100831.06;5034706;28;19997;-79
2022/08/19 02:25:26;;;;;;;;;;;;;;;18.90;65.28;100829.19;5047210;28;19929;-79
2022/08/19 02:27:51;;;;;;;;;;;;;;;18.90;65.23;100829.19;5050283;28;19917;-79
2022/08/19 02:30:17;;;;;;;;;;;;;;;18.90;65.60;100827.41;5024466;28;20070;-79
2022/08/19 02:32:43;;;;;;;;;;;;;;;18.91;65.33;100826.47;5005476;28;19966;-79
2022/08/19 02:35:08;;;;;;;;;;;;;;;18.92;65.49;100830.81;5027397;28;20095;-79
2022/08/19 02:40:18;;;;;;;;;;;;;;;18.89;65.42;100840.66;5033920;28;19928;-79
2022/08/19 02:42:45;;;;;;;;;;;;;;;18.86;65.64;100839.03;5039595;28;19917;-79
2022/08/19 02:45:10;;;;;;;;;;;;;;;18.88;65.58;100837.16;5034508;28;19929;-79
2022/08/19 02:47:36;;;;;;;;;;;;;;;18.87;65.41;100838.09;5040314;28;19932;-79
2022/08/19 02:50:02;;;;;;;;;;;;;;;18.89;65.13;100838.88;5034225;28;19925;-79
2022/08/19 02:52:28;;;;;;;;;;;;;;;18.88;65.55;100847.69;5015092;28;19932;-79
2022/08/19 02:54:53;;;;;;;;;;;;;;;18.88;65.29;100842.44;5034565;28;19917;-79
2022/08/19 02:57:18;;;;;;;;;;;;;;;18.88;65.34;100847.69;5019819;28;19948;-79
2022/08/19 02:59:43;;;;;;;;;;;;;;;18.86;65.61;100844.31;5016479;28;20019;-79
2022/08/19 03:02:09;;;;;;;;;;;;;;;18.85;65.51;100850.50;5024122;28;19985;-79
2022/08/19 03:04:34;;;;;;;;;;;;;;;18.86;65.45;100846.09;5043118;28;19917;-79
2022/08/19 03:06:59;;;;;;;;;;;;;;;18.85;65.48;100849.63;5040656;28;19963;-79
2022/08/19 03:09:25;;;;;;;;;;;;;;;18.84;65.77;100847.97;5045470;28;20395;-79
2022/08/19 03:11:50;;;;;;;;;;;;;;;18.82;65.73;100850.66;5045811;28;19936;-79
2022/08/19 03:14:16;;;;;;;;;;;;;;;18.82;65.60;100857.69;5045211;28;19929;-79
2022/08/19 03:16:43;;;;;;;;;;;;;;;18.81;65.73;100854.22;5045934;28;19966;-79
2022/08/19 03:19:08;;;;;;;;;;;;;;;18.83;65.60;100856.78;5047241;28;19917;-79
2022/08/19 03:21:34;;;;;;;;;;;;;;;18.82;65.85;100855.91;5043200;28;19921;-79
2022/08/19 03:24:04;;;;;;;;;;;;;;;18.80;65.79;100855.16;5029936;28;19931;-79
2022/08/19 03:26:29;;;;;;;;;;;;;;;18.81;66.22;100848.94;5041618;28;19929;-79
2022/08/19 03:28:55;;;;;;;;;;;;;;;18.80;66.22;100852.53;5038353;28;20412;-79
2022/08/19 03:31:24;;;;;;;;;;;;;;;18.80;66.00;100860.44;5035804;28;19921;-79
2022/08/19 03:33:52;;;;;;;;;;;;;;;18.77;66.04;100863.22;5033650;28;19921;-79
2022/08/19 03:36:20;;;;;;;;;;;;;;;18.78;65.98;100858.81;5020344;28;19922;-79
2022/08/19 03:38:48;;;;;;;;;;;;;;;18.75;65.91;100857.16;5037219;28;20296;-79
2022/08/19 03:41:15;;;;;;;;;;;;;;;18.75;66.00;100864.25;5040840;28;19981;-79
2022/08/19 03:43:40;;;;;;;;;;;;;;;18.77;65.85;100865.84;5035375;28;19921;-79
2022/08/19 03:46:07;;;;;;;;;;;;;;;18.73;66.08;100868.72;5020449;28;19932;-79
2022/08/19 03:48:33;;;;;;;;;;;;;;;18.73;65.95;100872.19;5038674;28;20408;-79
2022/08/19 03:50:59;;;;;;;;;;;;;;;18.74;66.23;100867.78;5036664;28;19964;-79
2022/08/19 03:53:25;;;;;;;;;;;;;;;18.74;66.27;100865.16;5030990;28;20012;-79
2022/08/19 03:55:51;;;;;;;;;;;;;;;18.75;66.19;100862.44;5041201;28;19932;-79
2022/08/19 03:58:16;;;;;;;;;;;;;;;18.66;66.66;100863.78;5040849;28;19929;-78
2022/08/19 04:00:42;;;;;;;;;;;;;;;18.73;65.91;100864.31;5046620;28;20004;-79
2022/08/19 04:03:08;;;;;;;;;;;;;;;18.73;66.14;100861.69;5041673;28;19948;-79
2022/08/19 04:05:33;;;;;;;;;;;;;;;18.76;65.96;100866.78;5042517;28;20385;-79
2022/08/19 04:07:58;;;;;;;;;;;;;;;18.75;65.84;100862.44;5039587;28;20020;-79
2022/08/19 04:10:24;;;;;;;;;;;;;;;18.69;66.27;100865.38;5042445;28;21273;-79
2022/08/19 04:12:49;;;;;;;;;;;;;;;18.68;66.38;100875.09;5040526;28;20377;-79
2022/08/19 04:15:15;;;;;;;;;;;;;;;18.68;66.48;100877.72;5024755;28;19948;-79
2022/08/19 04:17:40;;;;;;;;;;;;;;;18.72;66.29;100880.19;5020140;28;19921;-79
2022/08/19 04:20:06;;;;;;;;;;;;;;;18.72;66.30;100875.75;5022077;28;19936;-79
2022/08/19 04:22:31;;;;;;;;;;;;;;;18.71;66.32;100889.88;5023010;28;19972;-79
2022/08/19 04:24:56;;;;;;;;;;;;;;;18.68;66.60;100888.25;5041656;28;19909;-79
2022/08/19 04:27:21;;;;;;;;;;;;;;;18.66;66.51;100889.22;5027374;28;19950;-79
2022/08/19 04:29:47;;;;;;;;;;;;;;;18.60;66.60;100885.16;5042831;28;19978;-79
2022/08/19 04:32:14;;;;;;;;;;;;;;;18.66;66.38;100881.34;5019986;28;19925;-79
2022/08/19 04:34:40;;;;;;;;;;;;;;;18.67;66.58;100883.06;5038180;28;19925;-79
2022/08/19 04:37:11;;;;;;;;;;;;;;;18.67;66.55;100883.91;5041075;28;19909;-79
2022/08/19 04:42:39;;;;;;;;;;;;;;;18.70;66.48;100877.63;5038276;28;19971;-79
2022/08/19 04:45:05;;;;;;;;;;;;;;;18.72;66.34;100877.56;5030470;28;19927;-79
2022/08/19 04:47:32;;;;;;;;;;;;;;;18.66;66.53;100874.31;5042972;28;19924;-79
2022/08/19 04:49:57;;;;;;;;;;;;;;;18.68;66.41;100888.25;5033062;28;20384;-79
2022/08/19 04:52:23;;;;;;;;;;;;;;;18.71;66.61;100887.22;5037139;28;19928;-79
2022/08/19 04:54:48;;;;;;;;;;;;;;;18.71;66.73;100884.59;5038579;28;20020;-79
2022/08/19 04:57:13;;;;;;;;;;;;;;;18.65;66.93;100893.66;5017277;28;20016;-79
2022/08/19 04:59:39;;;;;;;;;;;;;;;18.66;66.91;100903.25;5039370;28;19925;-79
2022/08/19 05:02:06;;;;;;;;;;;;;;;18.64;67.01;100902.47;5042483;28;20033;-79
2022/08/19 05:04:32;;;;;;;;;;;;;;;18.67;67.37;100906.72;5039325;28;19917;-79
2022/08/19 05:06:58;;;;;;;;;;;;;;;18.66;67.50;100912.91;5045148;28;19921;-79
2022/08/19 05:09:23;;;;;;;;;;;;;;;18.63;67.61;100919.19;5046468;28;20382;-79
2022/08/19 05:11:50;;;;;;;;;;;;;;;18.67;67.54;100923.38;5045958;28;20019;-79
2022/08/19 05:14:16;;;;;;;;;;;;;;;18.59;67.99;100929.97;5046733;28;19925;-79
2022/08/19 05:16:41;;;;;;;;;;;;;;;18.62;67.11;100928.03;5045431;28;19970;-79
2022/08/19 05:24:34;;;;;;;;;;;;;;;18.69;67.42;100923.28;5038814;28;19928;-78
2022/08/19 05:27:02;;;;;;;;;;;;;;;18.70;67.50;100925.84;5035093;28;19925;-78
2022/08/19 05:29:28;;;;;;;;;;;;;;;18.63;67.74;100926.22;5038489;28;20035;-79
2022/08/19 05:31:54;;;;;;;;;;;;;;;18.67;67.56;100933.03;5041963;28;20345;-78
2022/08/19 05:34:21;;;;;;;;;;;;;;;18.74;67.38;100929.19;5043017;28;20282;-79
2022/08/19 05:36:47;;;;;;;;;;;;;;;18.68;67.71;100930.34;5040909;28;20275;-78
2022/08/19 05:39:19;;;;;;;;;;;;;;;18.67;67.64;100936.53;5041594;28;19925;-79
2022/08/19 05:41:46;;;;;;;;;;;;;;;18.74;67.48;100937.06;5039258;28;19925;-79
2022/08/19 05:44:12;;;;;;;;;;;;;;;18.74;67.57;100934.44;5040971;28;19927;-78
2022/08/19 05:46:38;;;;;;;;;;;;;;;18.70;68.08;100930.25;5021542;28;20278;-79
2022/08/19 05:49:05;;;;;;;;;;;;;;;18.75;67.88;100932.66;5039418;28;20003;-79
2022/08/19 05:51:32;;;;;;;;;;;;;;;18.74;68.01;100931.81;5038382;28;20443;-80
2022/08/19 05:53:57;;;;;;;;;;;;;;;18.74;68.16;100931.81;5039321;28;19925;-79
2022/08/19 05:56:23;;;;;;;;;;;;;;;18.76;67.78;100937.84;5041329;28;19928;-79
2022/08/19 05:58:48;;;;;;;;;;;;;;;18.75;68.01;100928.22;5029727;28;19947;-78
2022/08/19 06:01:16;;;;;;;;;;;;;;;18.55;68.88;100934.53;5038342;28;19921;-79
2022/08/19 06:03:41;;;;;;;;;;;;;;;18.64;68.47;100926.16;5032563;28;19917;-78
2022/08/19 06:06:07;;;;;;;;;;;;;;;18.74;68.22;100925.69;5039351;28;19931;-79
2022/08/19 06:08:33;;;;;;;;;;;;;;;18.58;68.74;100923.84;5039132;28;19948;-79
2022/08/19 06:11:11;;;;;;;;;;;;;;;18.68;68.61;100929.50;5041785;28;20374;-79
2022/08/19 06:13:36;;;;;;;;;;;;;;;18.60;69.03;100932.50;5038094;28;19936;-79
2022/08/19 06:16:01;;;;;;;;;;;;;;;18.77;68.33;100930.78;5035564;28;20327;-79
2022/08/19 06:18:27;;;;;;;;;;;;;;;18.80;68.30;100933.28;5034251;28;19928;-79
2022/08/19 06:20:53;;;;;;;;;;;;;;;18.77;68.50;100933.44;5046341;28;19999;-79
2022/08/19 06:23:20;;;;;;;;;;;;;;;18.78;68.50;100935.97;5032120;28;19932;-79
2022/08/19 06:25:45;;;;;;;;;;;;;;;18.82;68.35;100931.41;5040157;28;19951;-79
2022/08/19 06:28:11;;;;;;;;;;;;;;;18.84;68.47;100932.19;5040576;28;19921;-79
2022/08/19 06:30:36;;;;;;;;;;;;;;;18.85;68.42;100937.34;5036790;28;19929;-78
2022/08/19 06:33:02;;;;;;;;;;;;;;;18.81;68.90;100938.44;5040158;28;20526;-79
2022/08/19 06:35:29;;;;;;;;;;;;;;;18.85;68.66;100932.09;5042830;28;19929;-79
2022/08/19 06:37:54;;;;;;;;;;;;;;;18.85;68.67;100939.13;5037633;28;19964;-79
2022/08/19 06:40:20;;;;;;;;;;;;;;;18.74;69.35;100941.47;5033595;28;20651;-78
2022/08/19 06:42:45;;;;;;;;;;;;;;;18.75;69.35;100938.75;5023665;28;19917;-79
2022/08/19 06:45:10;;;;;;;;;;;;;;;18.84;69.22;100935.66;5040823;28;20012;-79
2022/08/19 06:47:36;;;;;;;;;;;;;;;18.94;69.09;100946.53;5023238;28;19925;-79
2022/08/19 06:50:04;;;;;;;;;;;;;;;18.96;68.97;100945.53;5042580;28;19936;-79
2022/08/19 06:52:33;;;;;;;;;;;;;;;18.96;69.04;100945.53;5035259;28;19932;-79
2022/08/19 06:54:59;;;;;;;;;;;;;;;18.96;68.91;100944.66;5024556;28;19929;-79
2022/08/19 06:57:25;;;;;;;;;;;;;;;18.99;68.91;100947.16;5035332;28;20340;-79
2022/08/19 06:59:50;;;;;;;;;;;;;;;18.98;69.11;100950.72;5035023;28;19925;-79
2022/08/19 07:02:15;;;;;;;;;;;;;;;18.99;69.13;100944.50;5036214;28;20353;-79
2022/08/19 07:04:41;;;;;;;;;;;;;;;19.09;69.28;100953.63;5034083;28;19928;-78
2022/08/19 07:07:12;;;;;;;;;;;;;;;19.06;69.38;100953.78;5041086;28;19979;-79
2022/08/19 07:09:39;;;;;;;;;;;;;;;19.15;68.97;100963.84;5040728;28;19943;-79
2022/08/19 07:12:06;;;;;;;;;;;;;;;19.16;68.82;100955.03;5036016;28;19933;-79
2022/08/19 07:14:32;;;;;;;;;;;;;;;19.18;68.94;100954.00;5033728;28;19979;-79
2022/08/19 07:16:57;;;;;;;;;;;;;;;19.20;68.69;100952.13;5039040;28;19929;-79
2022/08/19 07:19:24;;;;;;;;;;;;;;;19.24;68.71;100951.03;5038592;28;19928;-79
2022/08/19 07:21:52;;;;;;;;;;;;;;;19.21;68.92;100955.63;5024580;28;19921;-79
2022/08/19 07:24:18;;;;;;;;;;;;;;;19.25;68.44;100957.16;5037648;28;19921;-79
2022/08/19 07:26:44;;;;;;;;;;;;;;;19.25;68.82;100958.00;5035613;28;19947;-79
2022/08/19 07:29:10;;;;;;;;;;;;;;;19.36;67.94;100969.78;5038966;28;19971;-78
2022/08/19 07:31:36;;;;;;;;;;;;;;;19.36;68.47;100970.63;5039910;28;19936;-77
2022/08/19 07:34:02;;;;;;;;;;;;;;;19.41;68.23;100973.00;5038215;28;19919;-77
2022/08/19 07:36:32;;;;;;;;;;;;;;;19.43;68.44;100968.53;5040679;28;19925;-77
2022/08/19 07:38:57;;;;;;;;;;;;;;;19.45;67.97;100967.50;5038078;28;19921;-77
2022/08/19 07:41:24;;;;;;;;;;;;;;;19.49;67.80;100965.56;5030761;28;20473;-77
2022/08/19 07:43:50;;;;;;;;;;;;;;;19.51;67.20;100966.31;5033491;28;20434;-76
2022/08/19 07:46:16;;;;;;;;;;;;;;;19.54;67.04;100972.28;5035601;28;19917;-77
2022/08/19 07:48:42;;;;;;;;;;;;;;;19.51;67.17;100977.69;5034943;28;19917;-77
2022/08/19 07:51:11;;;;;;;;;;;;;;;19.55;66.81;100975.75;5034630;28;20457;-77
2022/08/19 07:53:37;;;;;;;;;;;;;;;19.55;66.90;100989.75;5033897;28;20610;-77
2022/08/19 07:56:03;;;;;;;;;;;;;;;19.61;66.78;100980.69;5035919;28;19931;-77
2022/08/19 07:58:33;;;;;;;;;;;;;;;19.61;66.78;100978.06;5040718;28;19921;-78
2022/08/19 08:00:58;;;;;;;;;;;;;;;19.68;66.76;100982.88;5034302;28;19909;-78
2022/08/19 08:11:36;;;;;;;;;;;;;;;19.68;66.34;100993.44;5037631;28;19986;-77
2022/08/19 08:14:01;;;;;;;;;;;;;;;19.76;66.07;100990.38;5035930;28;19925;-77
2022/08/19 08:16:30;;;;;;;;;;;;;;;19.80;66.11;100998.03;5038734;28;19917;-77
2022/08/19 08:18:56;;;;;;;;;;;;;;;19.83;66.66;100993.50;5036958;28;20560;-77
2022/08/19 08:21:24;;;;;;;;;;;;;;;19.86;66.39;101003.88;5040841;28;20019;-77
2022/08/19 08:23:51;;;;;;;;;;;;;;;19.75;66.15;101005.34;5017390;28;19960;-77
2022/08/19 08:26:17;;;;;;;;;;;;;;;19.79;65.97;101004.22;5036884;28;19925;-77
2022/08/19 08:28:42;;;;;;;;;;;;;;;19.87;65.19;101003.81;5022451;28;19948;-77
2022/08/19 08:31:09;;;;;;;;;;;;;;;19.83;66.01;101002.28;5018450;28;19956;-77
2022/08/19 08:33:34;;;;;;;;;;;;;;;19.87;65.97;101003.81;5024931;28;19921;-77
2022/08/19 08:36:00;;;;;;;;;;;;;;;19.87;66.19;100995.91;5042970;28;19928;-77
2022/08/19 08:38:25;;;;;;;;;;;;;;;19.86;66.23;100999.47;5037893;28;19929;-77
2022/08/19 08:40:55;;;;;;;;;;;;;;;19.86;65.59;100995.97;5036140;28;19925;-77
2022/08/19 08:43:24;;;;;;;;;;;;;;;19.85;65.86;101005.66;5023661;28;19967;-77
2022/08/19 08:46:09;;;;;;;;;;;;;;;19.87;66.32;100997.69;5045636;28;19913;-78
2022/08/19 08:48:38;;;;;;;;;;;;;;;19.87;66.34;100998.53;5030377;28;19928;-77
2022/08/19 08:51:07;;;;;;;;;;;;;;;19.92;66.02;101003.56;5037414;28;19929;-77
2022/08/19 08:53:34;;;;;;;;;;;;;;;19.87;66.27;101001.19;5035788;28;20623;-77
2022/08/19 08:56:01;;;;;;;;;;;;;;;19.93;66.23;100999.97;5037401;28;19931;-77
2022/08/19 08:58:31;;;;;;;;;;;;;;;19.93;65.74;101005.25;5019447;28;19927;-77
2022/08/19 09:00:57;;;;;;;;;;;;;;;19.92;65.81;101006.19;5044204;28;19912;-77
2022/08/19 09:03:24;;;;;;;;;;;;;;;19.89;65.57;101007.22;5039293;28;20428;-77
2022/08/19 09:05:56;;;;;;;;;;;;;;;19.91;65.66;100999.19;5037797;28;19931;-77
2022/08/19 09:08:31;;;;;;;;;;;;;;;19.93;66.02;101002.63;5034422;28;19956;-77
2022/08/19 09:10:57;;;;;;;;;;;;;;;19.95;65.05;100996.31;5042885;28;19931;-77
2022/08/19 09:13:34;;;;;;;;;;;;;;;20.03;65.79;100998.50;5041333;28;19921;-77
2022/08/19 09:16:07;;;;;;;;;;;;;;;19.98;65.20;100995.28;5026733;28;19917;-77
2022/08/19 09:18:47;;;;;;;;;;;;;;;20.01;64.91;100998.63;5037796;28;19921;-76
2022/08/19 09:21:13;;;;;;;;;;;;;;;20.00;64.81;100994.28;5038702;28;19982;-77
2022/08/19 09:23:38;;;;;;;;;;;;;;;20.00;64.87;100996.91;5039989;28;19931;-77
2022/08/19 09:26:14;;;;;;;;;;;;;;;20.04;64.18;101002.88;5040312;28;19925;-77
2022/08/19 09:28:43;;;;;;;;;;;;;;;20.02;64.37;100989.78;5040668;28;20014;-76
2022/08/19 09:31:10;;;;;;;;;;;;;;;20.11;64.19;100996.34;5037404;28;19927;-77
2022/08/19 09:33:35;;;;;;;;;;;;;;;20.15;64.12;100998.72;5042894;28;20444;-77
2022/08/19 09:36:03;;;;;;;;;;;;;;;20.18;64.07;100997.69;5020792;28;20063;-77
2022/08/19 09:38:28;;;;;;;;;;;;;;;20.22;63.74;100991.31;5041355;28;19928;-77
2022/08/19 09:40:53;;;;;;;;;;;;;;;20.20;63.84;100999.28;5037758;28;19925;-77
2022/08/19 09:43:19;;;;;;;;;;;;;;;20.14;64.15;100989.13;5028683;28;19921;-77
2022/08/19 09:45:44;;;;;;;;;;;;;;;20.14;64.02;100988.25;5042028;28;19935;-77
2022/08/19 09:48:09;;;;;;;;;;;;;;;20.19;64.32;100983.56;5037120;28;19921;-77
2022/08/19 09:50:38;;;;;;;;;;;;;;;20.19;63.75;100979.16;5044398;28;19925;-77
2022/08/19 09:53:05;;;;;;;;;;;;;;;20.19;63.97;100978.28;5054331;28;19936;-77
2022/08/19 09:55:30;;;;;;;;;;;;;;;20.20;63.41;100980.81;5045213;28;19913;-77
2022/08/19 09:57:55;;;;;;;;;;;;;;;20.21;63.87;100987.81;5047559;28;20284;-77
2022/08/19 10:00:21;;;;;;;;;;;;;;;20.26;64.06;100988.38;5046996;28;19932;-76
2022/08/19 10:02:46;;;;;;;;;;;;;;;20.21;64.00;100982.53;5052060;28;19933;-77
2022/08/19 10:08:11;;;;;;;;;;;;;;;20.26;64.59;100979.66;4999539;28;19925;-77
2022/08/19 10:10:37;;;;;;;;;;;;;;;20.28;64.18;100983.03;5021490;28;21175;-77
2022/08/19 10:13:03;;;;;;;;;;;;;;;20.31;63.58;100986.34;5041832;28;20400;-77
2022/08/19 10:15:29;;;;;;;;;;;;;;;20.36;62.75;100983.44;5008735;28;19982;-77
2022/08/19 10:17:54;;;;;;;;;;;;;;;20.35;62.19;100979.13;5016900;28;19933;-77
2022/08/19 10:20:20;;;;;;;;;;;;;;;20.32;61.89;100981.94;5021673;28;19982;-77
2022/08/19 10:22:45;;;;;;;;;;;;;;;20.26;62.37;100971.72;5013032;28;19937;-77
2022/08/19 10:25:10;;;;;;;;;;;;;;;20.41;61.39;100965.56;5037421;28;19917;-77
2022/08/19 10:27:37;;;;;;;;;;;;;;;20.39;61.55;100966.56;5022119;28;19999;-78
2022/08/19 10:30:03;;;;;;;;;;;;;;;20.24;62.81;100966.53;5015130;28;19929;-78
2022/08/19 10:32:29;;;;;;;;;;;;;;;20.34;61.56;100964.22;5040129;28;19925;-78
2022/08/19 10:34:56;;;;;;;;;;;;;;;20.40;61.50;100963.84;5034115;28;19924;-76
2022/08/19 10:37:21;;;;;;;;;;;;;;;20.55;59.83;100959.47;5042699;28;19924;-76
2022/08/19 10:39:47;;;;;;;;;;;;;;;20.58;59.94;100954.84;5046283;28;19995;-76
2022/08/19 10:42:13;;;;;;;;;;;;;;;20.48;60.58;100960.75;5038230;28;19970;-77
2022/08/19 10:44:40;;;;;;;;;;;;;;;20.58;59.64;100960.13;5019913;28;21344;-77
2022/08/19 10:47:06;;;;;;;;;;;;;;;20.61;59.01;100967.88;5028841;28;19920;-77
2022/08/19 10:49:32;;;;;;;;;;;;;;;20.65;58.79;100966.72;5034749;28;20035;-77
2022/08/19 10:57:28;;;;;;;;;;;;;;;20.51;60.07;100957.94;5039462;28;19982;-76
2022/08/19 10:59:55;;;;;;;;;;;;;;;20.57;59.79;100947.00;5035165;28;19928;-77
2022/08/19 11:02:20;;;;;;;;;;;;;;;20.68;58.09;100948.06;5035356;28;20029;-77
2022/08/19 11:04:45;;;;;;;;;;;;;;;20.67;57.49;100946.41;5014493;28;20344;-77
2022/08/19 11:07:11;;;;;;;;;;;;;;;20.73;57.34;100943.38;5033584;28;19928;-77
2022/08/19 11:09:40;;;;;;;;;;;;;;;20.78;57.34;100946.59;5033429;28;19974;-77
2022/08/19 11:12:07;;;;;;;;;;;;;;;20.92;57.29;100942.31;5032505;28;19933;-77
2022/08/19 11:14:33;;;;;;;;;;;;;;;20.87;57.45;100940.78;5034479;28;20386;-77
2022/08/19 11:16:58;;;;;;;;;;;;;;;20.94;57.15;100951.81;5025142;28;19916;-77
2022/08/19 11:19:24;;;;;;;;;;;;;;;20.89;56.44;100940.69;5019692;28;19921;-77
2022/08/19 11:21:50;;;;;;;;;;;;;;;20.91;56.80;100933.53;5042575;28;19921;-77
2022/08/19 11:24:20;;;;;;;;;;;;;;;20.97;56.37;100941.06;5023980;28;19921;-77
2022/08/19 11:26:45;;;;;;;;;;;;;;;20.97;56.84;100938.44;5019187;28;20313;-77
2022/08/19 11:29:12;;;;;;;;;;;;;;;20.97;56.99;100925.22;5035173;28;19930;-77
2022/08/19 11:31:39;;;;;;;;;;;;;;;21.03;56.62;100931.94;5015892;28;20439;-77
2022/08/19 11:34:06;;;;;;;;;;;;;;;21.08;57.37;100937.75;5001373;28;19925;-77
2022/08/19 11:36:32;;;;;;;;;;;;;;;21.00;59.11;100932.09;5034723;28;19933;-77
2022/08/19 11:38:57;;;;;;;;;;;;;;;21.10;56.65;100928.78;5039088;28;19933;-77
2022/08/19 11:41:23;;;;;;;;;;;;;;;21.26;55.63;100932.19;5039944;28;20297;-77
2022/08/19 11:43:50;;;;;;;;;;;;;;;21.27;55.87;100923.28;5041269;28;19920;-77
2022/08/19 11:46:16;;;;;;;;;;;;;;;21.25;56.33;100929.63;5043702;28;20005;-77
2022/08/19 11:48:41;;;;;;;;;;;;;;;21.25;55.81;100929.63;5041288;28;19951;-77
2022/08/19 11:51:08;;;;;;;;;;;;;;;21.29;55.60;100942.56;5008831;28;20461;-77
2022/08/19 11:53:34;;;;;;;;;;;;;;;21.36;55.01;100925.38;5024869;28;19924;-77
2022/08/19 11:55:59;;;;;;;;;;;;;;;21.25;55.31;100925.19;5034771;28;21248;-77
2022/08/19 11:58:25;;;;;;;;;;;;;;;21.35;54.62;100921.03;5050669;28;19913;-77
2022/08/19 12:00:50;;;;;;;;;;;;;;;21.24;54.77;100923.50;5043643;28;20325;-77
2022/08/19 12:03:16;;;;;;;;;;;;;;;21.31;54.75;100932.75;5038709;28;20367;-77
2022/08/19 12:05:41;;;;;;;;;;;;;;;21.43;53.83;100923.19;5043762;28;19925;-77
2022/08/19 12:08:07;;;;;;;;;;;;;;;21.41;54.62;100919.81;5052274;28;19931;-77
2022/08/19 12:10:34;;;;;;;;;;;;;;;21.47;53.89;100927.34;5022576;28;19913;-77
2022/08/19 12:12:59;;;;;;;;;;;;;;;21.53;53.31;100928.75;5004361;28;20402;-76
2022/08/19 12:15:28;;;;;;;;;;;;;;;21.45;53.47;100926.59;5023152;28;19973;-77
2022/08/19 12:17:56;;;;;;;;;;;;;;;21.36;54.34;100921.91;5011962;28;19917;-77
2022/08/19 12:20:22;;;;;;;;;;;;;;;21.15;55.48;100924.09;5038279;28;19920;-77
2022/08/19 12:22:48;;;;;;;;;;;;;;;21.10;55.72;100922.66;5046799;28;19932;-77
2022/08/19 12:25:13;;;;;;;;;;;;;;;21.07;55.47;100917.56;5047755;28;19921;-77
2022/08/19 12:27:40;;;;;;;;;;;;;;;21.49;52.19;100914.88;5044051;28;19929;-77
2022/08/19 12:30:07;;;;;;;;;;;;;;;21.43;52.83;100905.53;5041105;28;19925;-76
2022/08/19 12:32:32;;;;;;;;;;;;;;;21.45;52.92;100908.91;5037206;28;19929;-77
2022/08/19 12:34:58;;;;;;;;;;;;;;;21.33;53.13;100907.06;5031947;28;20586;-77
2022/08/19 12:37:23;;;;;;;;;;;;;;;21.47;53.68;100900.06;5027235;28;20306;-76
2022/08/19 12:39:48;;;;;;;;;;;;;;;21.53;52.61;100903.16;5049800;28;20297;-77
2022/08/19 12:42:14;;;;;;;;;;;;;;;21.58;52.20;100906.34;5039132;28;19975;-77
2022/08/19 12:44:41;;;;;;;;;;;;;;;21.52;51.91;100905.88;5026260;28;19927;-77
2022/08/19 12:47:07;;;;;;;;;;;;;;;21.46;52.47;100899.22;5032748;28;20657;-77
2022/08/19 12:49:34;;;;;;;;;;;;;;;21.64;52.72;100905.13;5023314;28;19932;-76
2022/08/19 12:52:03;;;;;;;;;;;;;;;21.70;50.96;100896.81;5003952;28;20047;-77
2022/08/19 12:54:30;;;;;;;;;;;;;;;21.54;51.62;100882.88;5019457;28;20028;-77
2022/08/19 12:56:56;;;;;;;;;;;;;;;21.45;52.38;100892.25;5017220;28;19921;-77
2022/08/19 12:59:22;;;;;;;;;;;;;;;21.68;50.60;100896.06;5024674;28;20012;-76